createdAt,value
2018-11-22T12:17:19.427Z,20.23
2018-11-22T12:19:49.332Z,20.92
2018-11-22T12:22:18.927Z,19.25
2018-11-22T12:24:49.394Z,20.52
2018-11-22T12:27:19.221Z,20.32
2018-11-22T12:29:47.849Z,20.37
2018-11-22T12:32:21.793Z,20.40
2018-11-22T12:34:56.497Z,19.48
2018-11-22T12:37:32.108Z,20.35
2018-11-22T12:40:03.253Z,19.20
2018-11-22T12:42:33.220Z,20.32
2018-11-22T12:45:04.238Z,20.52
2018-11-22T12:47:33.703Z,19.87
2018-11-22T12:50:03.373Z,19.25
2018-11-22T12:52:33.014Z,18.80
2018-11-22T12:55:02.883Z,20.30
2018-11-22T12:57:32.434Z,21.45
2018-11-22T13:00:02.250Z,24.05
2018-11-22T13:02:31.683Z,21.17
2018-11-22T13:05:01.042Z,22.52
2018-11-22T13:07:30.929Z,20.77
2018-11-22T13:10:00.409Z,21.48
2018-11-22T13:12:30.543Z,19.55
2018-11-22T13:14:59.686Z,19.80
2018-11-22T13:17:29.571Z,20.20
2018-11-22T13:19:58.701Z,20.77
2018-11-22T13:22:28.196Z,19.98
2018-11-22T13:24:57.392Z,21.95
2018-11-22T13:27:27.450Z,20.72
2018-11-22T13:29:57.261Z,20.08
2018-11-22T13:32:27.402Z,20.95
2018-11-22T13:34:57.021Z,19.20
2018-11-22T13:37:27.346Z,20.08
2018-11-22T13:39:56.073Z,20.72
2018-11-22T13:42:26.255Z,21.27
2018-11-22T13:44:55.210Z,22.07
2018-11-22T13:47:23.909Z,21.02
2018-11-22T13:49:54.294Z,21.57
2018-11-22T13:52:24.619Z,18.77
2018-11-22T13:54:53.832Z,20.70
2018-11-22T13:57:22.971Z,19.95
2018-11-22T13:59:58.193Z,20.30
2018-11-22T14:02:21.559Z,20.00
2018-11-22T14:04:50.644Z,20.55
2018-11-22T14:07:19.874Z,20.23
2018-11-22T14:09:48.630Z,21.97
2018-11-22T14:12:17.906Z,19.87
2018-11-22T14:14:46.993Z,19.73
2018-11-22T14:17:16.015Z,20.10
2018-11-22T14:19:45.103Z,21.05
2018-11-22T14:22:13.834Z,21.48
2018-11-22T14:24:42.999Z,21.27
2018-11-22T14:27:12.554Z,21.73
2018-11-22T14:29:42.045Z,21.93
2018-11-22T14:32:11.737Z,20.77
2018-11-22T14:34:40.940Z,21.52
2018-11-22T14:37:10.023Z,20.20
2018-11-22T14:39:39.301Z,21.17
2018-11-22T14:42:08.748Z,22.37
2018-11-22T14:44:38.160Z,19.77
2018-11-22T14:47:08.451Z,19.37
2018-11-22T14:49:37.519Z,19.67
2018-11-22T14:52:07.034Z,21.05
2018-11-22T14:54:36.297Z,20.30
2018-11-22T14:57:05.048Z,20.45
2018-11-22T14:59:34.859Z,19.85
2018-11-22T15:02:03.931Z,20.80
2018-11-22T15:04:33.034Z,17.48
2018-11-22T15:07:02.284Z,22.40
2018-11-22T15:09:31.513Z,23.85
2018-11-22T15:12:00.425Z,20.68
2018-11-22T15:14:29.553Z,19.40
2018-11-22T15:17:00.051Z,18.30
2018-11-22T15:19:30.316Z,21.80
2018-11-22T15:22:00.409Z,20.43
2018-11-22T15:24:29.050Z,21.55
2018-11-22T15:26:59.213Z,20.23
2018-11-22T15:29:28.437Z,20.90
2018-11-22T15:31:58.756Z,19.50
2018-11-22T15:34:27.704Z,19.85
2018-11-22T15:36:57.663Z,21.00
2018-11-22T15:39:26.793Z,18.37
2018-11-22T15:41:55.568Z,23.80
2018-11-22T15:44:24.850Z,18.87
2018-11-22T15:46:53.576Z,18.92
2018-11-22T15:49:22.249Z,23.10
2018-11-22T15:51:51.001Z,22.30
2018-11-22T15:54:19.681Z,19.98
2018-11-22T15:56:49.017Z,23.00
2018-11-22T15:59:17.806Z,19.87
2018-11-22T16:01:47.183Z,21.80
2018-11-22T16:04:16.288Z,19.95
2018-11-22T16:06:45.026Z,19.73
2018-11-22T16:09:14.507Z,20.20
2018-11-22T16:11:44.211Z,20.82
2018-11-22T16:14:13.439Z,21.23
2018-11-22T16:16:42.803Z,21.85
2018-11-22T16:19:11.563Z,19.80
2018-11-22T16:21:40.147Z,22.42
2018-11-22T16:24:09.105Z,21.75
2018-11-22T16:26:38.700Z,21.48
2018-11-22T16:30:11.375Z,20.95
2018-11-22T16:32:40.428Z,21.42
2018-11-22T16:35:10.156Z,19.37
2018-11-22T16:37:39.182Z,21.05
2018-11-22T16:40:09.165Z,19.50
2018-11-22T16:42:38.502Z,20.25
2018-11-22T16:45:11.758Z,21.05
2018-11-22T16:47:40.824Z,21.57
2018-11-22T16:50:10.700Z,22.85
2018-11-22T16:52:39.337Z,22.15
2018-11-22T16:55:08.840Z,22.05
2018-11-22T16:57:38.468Z,20.45
2018-11-22T17:00:10.676Z,19.10
2018-11-22T17:02:40.400Z,19.20
2018-11-22T17:05:09.498Z,19.42
2018-11-22T17:07:38.652Z,21.20
2018-11-22T17:10:08.058Z,19.35
2018-11-22T17:12:36.977Z,21.95
2018-11-22T17:15:07.245Z,22.87
2018-11-22T17:17:36.341Z,23.22
2018-11-22T17:20:05.297Z,20.10
2018-11-22T17:22:33.993Z,20.27
2018-11-22T17:25:03.119Z,21.25
2018-11-22T17:27:32.227Z,19.77
2018-11-22T17:30:02.070Z,20.02
2018-11-22T17:32:30.873Z,21.05
2018-11-22T17:34:59.858Z,21.73
2018-11-22T17:37:29.704Z,20.95
2018-11-22T17:39:58.842Z,21.50
2018-11-22T17:42:28.808Z,20.30
2018-11-22T17:44:57.834Z,20.48
2018-11-22T17:47:26.967Z,23.30
2018-11-22T17:49:56.040Z,20.55
2018-11-22T17:52:24.984Z,22.27
2018-11-22T17:54:55.218Z,20.15
2018-11-22T17:57:25.024Z,23.77
2018-11-22T17:59:54.422Z,22.22
2018-11-22T18:02:23.647Z,22.48
2018-11-22T18:04:52.667Z,23.32
2018-11-22T18:07:21.821Z,22.02
2018-11-22T18:09:51.245Z,22.82
2018-11-22T18:12:21.285Z,25.68
2018-11-22T18:14:50.429Z,23.18
2018-11-22T18:17:19.791Z,24.27
2018-11-22T18:19:49.772Z,22.17
2018-11-22T18:22:18.871Z,24.23
2018-11-22T18:24:48.594Z,23.20
2018-11-22T18:27:17.474Z,22.65
2018-11-22T18:29:48.178Z,24.20
2018-11-22T18:32:17.813Z,24.50
2018-11-22T18:34:47.994Z,24.55
2018-11-22T18:37:16.931Z,21.77
2018-11-22T18:39:46.473Z,23.42
2018-11-22T18:42:15.903Z,22.90
2018-11-22T18:44:45.271Z,23.50
2018-11-22T18:47:15.449Z,25.65
2018-11-22T18:49:45.470Z,23.07
2018-11-22T18:52:15.198Z,23.05
2018-11-22T18:54:45.162Z,22.37
2018-11-22T18:57:14.946Z,22.48
2018-11-22T18:59:45.521Z,26.52
2018-11-22T19:02:16.121Z,22.45
2018-11-22T19:04:46.653Z,24.23
2018-11-22T19:07:16.032Z,21.00
2018-11-22T19:09:45.787Z,24.45
2018-11-22T19:12:16.075Z,22.07
2018-11-22T19:14:45.443Z,23.60
2018-11-22T19:17:15.566Z,22.22
2018-11-22T19:19:45.142Z,22.65
2018-11-22T19:22:14.451Z,22.02
2018-11-22T19:24:44.564Z,22.80
2018-11-22T19:27:13.685Z,23.00
2018-11-22T19:29:42.536Z,23.40
2018-11-22T19:32:12.469Z,23.45
2018-11-22T19:34:41.941Z,23.67
2018-11-22T19:37:11.170Z,22.70
2018-11-22T19:39:41.128Z,21.80
2018-11-22T19:42:13.047Z,22.85
2018-11-22T19:44:42.071Z,23.42
2018-11-22T19:47:12.456Z,23.25
2018-11-22T19:49:41.161Z,22.00
2018-11-22T19:52:11.046Z,23.12
2018-11-22T19:54:41.123Z,22.90
2018-11-22T19:57:11.240Z,23.67
2018-11-22T19:59:40.598Z,23.38
2018-11-22T20:02:09.227Z,22.00
2018-11-22T20:04:38.374Z,24.05
2018-11-22T20:07:08.206Z,22.62
2018-11-22T20:09:38.395Z,23.05
2018-11-22T20:12:07.589Z,22.42
2018-11-22T20:14:37.199Z,23.47
2018-11-22T20:17:07.139Z,25.95
2018-11-22T20:19:36.961Z,22.40
2018-11-22T20:22:05.639Z,21.30
2018-11-22T20:24:34.217Z,22.50
2018-11-22T20:27:03.923Z,23.22
2018-11-22T20:29:33.875Z,23.22
2018-11-22T20:32:02.852Z,25.00
2018-11-22T20:34:32.076Z,23.35
2018-11-22T20:37:00.766Z,23.75
2018-11-22T20:39:29.955Z,23.18
2018-11-22T20:41:59.652Z,23.67
2018-11-22T20:44:28.473Z,22.13
2018-11-22T20:46:57.094Z,25.10
2018-11-22T20:49:26.195Z,25.10
2018-11-22T20:51:55.014Z,24.82
2018-11-22T20:54:25.424Z,23.40
2018-11-22T20:56:54.116Z,23.30
2018-11-22T20:59:23.224Z,23.87
2018-11-22T21:01:52.594Z,25.48
2018-11-22T21:04:21.117Z,22.52
2018-11-22T21:06:51.177Z,23.15
2018-11-22T21:09:21.262Z,24.47
2018-11-22T21:11:51.356Z,23.00
2018-11-22T21:14:21.335Z,23.60
2018-11-22T21:16:49.982Z,23.45
2018-11-22T21:19:19.718Z,25.37
2018-11-22T21:21:48.478Z,23.12
2018-11-22T21:24:17.906Z,23.27
2018-11-22T21:26:46.502Z,23.02
2018-11-22T21:29:16.282Z,21.75
2018-11-22T21:31:45.047Z,23.83
2018-11-22T21:34:14.318Z,24.18
2018-11-22T21:36:44.608Z,24.32
2018-11-22T21:39:13.911Z,23.85
2018-11-22T21:41:42.504Z,23.75
2018-11-22T21:44:11.597Z,22.52
2018-11-22T21:46:40.357Z,25.12
2018-11-22T21:49:09.594Z,22.90
2018-11-22T21:51:39.549Z,25.62
2018-11-22T21:54:08.280Z,25.52
2018-11-22T21:56:37.176Z,24.75
2018-11-22T21:59:05.797Z,24.37
2018-11-22T22:01:34.436Z,23.15
2018-11-22T22:04:04.300Z,24.07
2018-11-22T22:06:32.993Z,24.57
2018-11-22T22:09:02.760Z,24.67
2018-11-22T22:11:33.331Z,24.32
2018-11-22T22:14:03.540Z,24.07
2018-11-22T22:16:32.272Z,22.77
2018-11-22T22:19:01.929Z,25.05
2018-11-22T22:21:33.214Z,25.45
2018-11-22T22:24:03.050Z,23.95
2018-11-22T22:26:32.509Z,24.70
2018-11-22T22:29:01.140Z,24.40
2018-11-22T22:31:30.867Z,22.55
2018-11-22T22:34:01.112Z,24.65
2018-11-22T22:36:29.879Z,25.90
2018-11-22T22:38:59.636Z,25.17
2018-11-22T22:41:29.166Z,24.02
2018-11-22T22:43:57.936Z,23.65
2018-11-22T22:46:29.185Z,25.82
2018-11-22T22:49:00.137Z,24.43
2018-11-22T22:51:30.731Z,26.70
2018-11-22T22:53:59.262Z,24.82
2018-11-22T22:56:27.766Z,24.27
2018-11-22T22:58:58.007Z,23.07
2018-11-22T23:01:27.508Z,21.87
2018-11-22T23:03:56.117Z,25.10
2018-11-22T23:06:25.164Z,25.75
2018-11-22T23:08:54.827Z,24.65
2018-11-22T23:11:23.382Z,25.90
2018-11-22T23:13:52.015Z,23.95
2018-11-22T23:16:20.562Z,25.40
2018-11-22T23:18:50.590Z,24.92
2018-11-22T23:21:19.178Z,24.50
2018-11-22T23:23:47.743Z,23.75
2018-11-22T23:26:17.423Z,26.65
2018-11-22T23:28:46.061Z,22.45
2018-11-22T23:31:14.692Z,24.85
2018-11-22T23:33:44.318Z,25.05
2018-11-22T23:36:12.967Z,25.00
2018-11-22T23:38:41.525Z,25.08
2018-11-22T23:41:12.109Z,25.32
2018-11-22T23:43:40.604Z,24.32
2018-11-22T23:46:09.114Z,24.80
2018-11-22T23:48:37.595Z,25.15
2018-11-22T23:51:06.218Z,25.23
2018-11-22T23:53:34.760Z,25.43
2018-11-22T23:56:03.380Z,25.15
2018-11-22T23:58:31.873Z,26.02
